RYR90QC EBCI-EGCC
Flight info
| Callsign | RYR90QC |
|---|---|
| Flight time | N/A |
| Altitude | 36000 |
| Route | CIV UY50 LUMEN L610 GILDA M14 STOAT L613 MOGLI UP6 LESTA |
| Aircraft | B738/M-SDE2E3FGHIRWXY/LB1 |
Departure
| Time | 2026-05-04 14:34 |
|---|---|
| Airport | Brussels South Charleroi Airport (EBCI) |
Arrival
| Time | N/A |
|---|---|
| Airport | Manchester Airport (EGCC) |
| Time | Latitude | Longitude | Altitude | Speed | Heading |
|---|---|---|---|---|---|
| 2026-05-04 14:07 | 50.46924 | 4.47290 | 584 ft | 0 kts | 335° |
| 2026-05-04 14:26 | 50.46920 | 4.47292 | 584 ft | 3 kts | 336° |
| 2026-05-04 14:27 | 50.46896 | 4.47308 | 583 ft | 4 kts | 343° |
| 2026-05-04 14:27 | 50.46870 | 4.47315 | 584 ft | 4 kts | 7° |
| 2026-05-04 14:27 | 50.46851 | 4.47302 | 585 ft | 2 kts | 65° |
| 2026-05-04 14:27 | 50.46850 | 4.47300 | 585 ft | 1 kts | 65° |
| 2026-05-04 14:30 | 50.46859 | 4.47333 | 585 ft | 8 kts | 65° |
| 2026-05-04 14:30 | 50.46907 | 4.47599 | 587 ft | 15 kts | 124° |
| 2026-05-04 14:31 | 50.46833 | 4.47663 | 592 ft | 0 kts | 155° |
| 2026-05-04 14:32 | 50.46832 | 4.47664 | 592 ft | 1 kts | 155° |
| 2026-05-04 14:32 | 50.46818 | 4.47674 | 617 ft | 5 kts | 155° |
| 2026-05-04 14:33 | 50.46751 | 4.47716 | 594 ft | 13 kts | 166° |
| 2026-05-04 14:33 | 50.46668 | 4.47632 | 592 ft | 18 kts | 245° |
| 2026-05-04 14:33 | 50.46608 | 4.47433 | 596 ft | 26 kts | 246° |
| 2026-05-04 14:33 | 50.46432 | 4.46827 | 593 ft | 96 kts | 246° |
| 2026-05-04 14:34 | 50.46069 | 4.45574 | 592 ft | 154 kts | 245° |
| 2026-05-04 14:34 | 50.45572 | 4.43902 | 986 ft | 175 kts | 244° |
| 2026-05-04 14:34 | 50.45073 | 4.42204 | 1929 ft | 170 kts | 245° |
| 2026-05-04 14:34 | 50.44571 | 4.40430 | 2552 ft | 188 kts | 246° |
| 2026-05-04 14:35 | 50.44008 | 4.38481 | 3122 ft | 207 kts | 248° |
| 2026-05-04 14:35 | 50.43385 | 4.36289 | 3322 ft | 231 kts | 246° |
| 2026-05-04 14:35 | 50.42703 | 4.33929 | 3736 ft | 241 kts | 246° |
| 2026-05-04 14:35 | 50.42012 | 4.31466 | 4040 ft | 258 kts | 252° |
| 2026-05-04 14:36 | 50.41973 | 4.28639 | 4498 ft | 269 kts | 289° |
| 2026-05-04 14:36 | 50.42815 | 4.26032 | 5293 ft | 268 kts | 300° |
| 2026-05-04 14:36 | 50.43748 | 4.23493 | 6007 ft | 271 kts | 300° |
| 2026-05-04 14:36 | 50.44688 | 4.20901 | 6669 ft | 275 kts | 299° |
| 2026-05-04 14:37 | 50.45622 | 4.18267 | 7355 ft | 277 kts | 299° |
| 2026-05-04 14:37 | 50.46539 | 4.15634 | 7870 ft | 281 kts | 298° |
| 2026-05-04 14:37 | 50.47481 | 4.12890 | 8008 ft | 284 kts | 298° |
| 2026-05-04 14:37 | 50.48412 | 4.10148 | 8601 ft | 284 kts | 298° |
| 2026-05-04 14:38 | 50.49339 | 4.07403 | 9330 ft | 285 kts | 298° |
| 2026-05-04 14:38 | 50.50270 | 4.04632 | 9999 ft | 288 kts | 298° |
| 2026-05-04 14:38 | 50.51222 | 4.01794 | 10325 ft | 303 kts | 298° |
| 2026-05-04 14:38 | 50.52221 | 3.98806 | 10484 ft | 323 kts | 298° |
| 2026-05-04 14:39 | 50.53294 | 3.95595 | 10705 ft | 339 kts | 298° |
| 2026-05-04 14:39 | 50.54400 | 3.92275 | 11188 ft | 346 kts | 298° |
| 2026-05-04 14:39 | 50.55521 | 3.88908 | 11790 ft | 349 kts | 298° |
| 2026-05-04 14:40 | 50.58508 | 3.82929 | 13026 ft | 354 kts | 326° |
| 2026-05-04 14:40 | 50.60712 | 3.81184 | 13665 ft | 357 kts | 339° |
| 2026-05-04 14:40 | 50.63066 | 3.79842 | 14204 ft | 362 kts | 340° |
| 2026-05-04 14:40 | 50.65456 | 3.78522 | 14744 ft | 367 kts | 340° |
| 2026-05-04 14:41 | 50.67879 | 3.77179 | 15353 ft | 370 kts | 340° |
| 2026-05-04 14:41 | 50.70310 | 3.75813 | 15947 ft | 373 kts | 340° |
| 2026-05-04 14:41 | 50.75227 | 3.73003 | 17200 ft | 377 kts | 340° |
| 2026-05-04 14:42 | 50.80165 | 3.70148 | 18438 ft | 381 kts | 340° |
| 2026-05-04 14:42 | 50.82669 | 3.68696 | 18885 ft | 385 kts | 340° |
| 2026-05-04 14:42 | 50.85196 | 3.67228 | 19338 ft | 389 kts | 339° |
| 2026-05-04 14:43 | 50.87754 | 3.65741 | 19785 ft | 393 kts | 339° |
| 2026-05-04 14:43 | 50.90332 | 3.64241 | 20258 ft | 396 kts | 339° |
| 2026-05-04 14:43 | 50.92920 | 3.62698 | 20773 ft | 399 kts | 338° |
| 2026-05-04 14:43 | 50.95509 | 3.61055 | 21227 ft | 402 kts | 336° |
| 2026-05-04 14:44 | 50.98107 | 3.59368 | 21671 ft | 406 kts | 336° |
| 2026-05-04 14:44 | 51.00731 | 3.57657 | 22119 ft | 409 kts | 336° |
| 2026-05-04 14:44 | 51.03380 | 3.55934 | 22555 ft | 412 kts | 336° |
| 2026-05-04 14:44 | 51.06045 | 3.54207 | 22987 ft | 416 kts | 336° |
| 2026-05-04 14:45 | 51.08730 | 3.52471 | 23407 ft | 419 kts | 336° |
| 2026-05-04 14:45 | 51.11446 | 3.50717 | 23786 ft | 422 kts | 336° |
| 2026-05-04 14:45 | 51.14177 | 3.48952 | 24124 ft | 425 kts | 336° |
| 2026-05-04 14:45 | 51.16924 | 3.47174 | 24457 ft | 428 kts | 336° |
| 2026-05-04 14:46 | 51.19691 | 3.45381 | 24790 ft | 431 kts | 336° |
| 2026-05-04 14:46 | 51.22480 | 3.43561 | 25120 ft | 434 kts | 334° |
| 2026-05-04 14:46 | 51.25020 | 3.41028 | 25385 ft | 432 kts | 314° |
| 2026-05-04 14:46 | 51.26887 | 3.37318 | 25735 ft | 427 kts | 297° |
| 2026-05-04 14:47 | 51.28044 | 3.32993 | 26087 ft | 423 kts | 281° |
| 2026-05-04 14:47 | 51.28670 | 3.28397 | 26382 ft | 425 kts | 278° |
| 2026-05-04 14:47 | 51.29226 | 3.23761 | 26690 ft | 426 kts | 277° |
| 2026-05-04 14:47 | 51.29774 | 3.19100 | 27108 ft | 426 kts | 277° |
| 2026-05-04 14:48 | 51.30332 | 3.14445 | 27469 ft | 427 kts | 277° |
| 2026-05-04 14:48 | 51.30899 | 3.09826 | 27736 ft | 430 kts | 277° |
| 2026-05-04 14:48 | 51.31493 | 3.05060 | 27999 ft | 433 kts | 277° |
| 2026-05-04 14:48 | 51.32081 | 3.00387 | 28274 ft | 436 kts | 277° |
| 2026-05-04 14:49 | 51.32679 | 2.95635 | 28558 ft | 437 kts | 277° |
| 2026-05-04 14:49 | 51.33278 | 2.90868 | 28830 ft | 440 kts | 277° |
| 2026-05-04 14:49 | 51.33881 | 2.86054 | 29117 ft | 442 kts | 277° |
| 2026-05-04 14:49 | 51.34482 | 2.81233 | 29410 ft | 443 kts | 277° |
| 2026-05-04 14:50 | 51.35082 | 2.76396 | 29666 ft | 445 kts | 277° |
| 2026-05-04 14:50 | 51.35683 | 2.71528 | 29906 ft | 447 kts | 277° |
| 2026-05-04 14:50 | 51.36286 | 2.66642 | 30124 ft | 449 kts | 277° |
| 2026-05-04 14:50 | 51.36891 | 2.61724 | 30407 ft | 449 kts | 277° |
| 2026-05-04 14:51 | 51.37491 | 2.56839 | 30796 ft | 446 kts | 277° |
| 2026-05-04 14:51 | 51.38085 | 2.51996 | 31204 ft | 442 kts | 277° |
| 2026-05-04 14:51 | 51.38672 | 2.47175 | 31560 ft | 441 kts | 277° |
| 2026-05-04 14:51 | 51.39257 | 2.42352 | 31853 ft | 440 kts | 277° |
| 2026-05-04 14:52 | 51.39837 | 2.37550 | 32174 ft | 440 kts | 277° |
| 2026-05-04 14:52 | 51.40417 | 2.32743 | 32501 ft | 438 kts | 277° |
| 2026-05-04 14:52 | 51.40992 | 2.27960 | 32832 ft | 437 kts | 277° |
| 2026-05-04 14:52 | 51.41566 | 2.23191 | 33163 ft | 436 kts | 277° |
| 2026-05-04 14:53 | 51.42148 | 2.18424 | 33480 ft | 435 kts | 277° |
| 2026-05-04 14:53 | 51.42730 | 2.13673 | 33787 ft | 434 kts | 277° |
| 2026-05-04 14:53 | 51.43309 | 2.08937 | 34094 ft | 432 kts | 277° |
| 2026-05-04 14:53 | 51.43883 | 2.04209 | 34321 ft | 432 kts | 277° |
| 2026-05-04 14:54 | 51.44455 | 1.99467 | 34496 ft | 434 kts | 277° |
| 2026-05-04 14:54 | 51.45018 | 1.94721 | 34690 ft | 434 kts | 276° |
| 2026-05-04 14:54 | 51.45577 | 1.89969 | 34922 ft | 434 kts | 277° |
| 2026-05-04 14:54 | 51.46134 | 1.85197 | 35071 ft | 436 kts | 277° |
| 2026-05-04 14:55 | 51.46688 | 1.80422 | 35251 ft | 436 kts | 277° |
| 2026-05-04 14:55 | 51.47235 | 1.75682 | 35487 ft | 436 kts | 277° |
| 2026-05-04 14:55 | 51.47784 | 1.70917 | 35702 ft | 436 kts | 277° |
| 2026-05-04 14:55 | 51.48333 | 1.66138 | 35865 ft | 436 kts | 277° |
| 2026-05-04 14:56 | 51.48882 | 1.61337 | 35988 ft | 438 kts | 277° |
| 2026-05-04 14:56 | 51.49435 | 1.56479 | 35981 ft | 440 kts | 277° |
| 2026-05-04 14:56 | 51.50523 | 1.46878 | 35989 ft | 436 kts | 277° |
| 2026-05-04 14:57 | 51.51597 | 1.37323 | 35989 ft | 434 kts | 277° |
| 2026-05-04 14:57 | 51.52660 | 1.27793 | 36002 ft | 432 kts | 277° |
| 2026-05-04 14:58 | 51.53713 | 1.18293 | 36000 ft | 432 kts | 277° |
| 2026-05-04 14:58 | 51.54759 | 1.08772 | 36002 ft | 433 kts | 277° |
| 2026-05-04 14:59 | 51.55798 | 0.99232 | 36004 ft | 435 kts | 277° |
| 2026-05-04 15:00 | 51.57353 | 0.84806 | 36030 ft | 438 kts | 277° |
| 2026-05-04 15:00 | 51.58387 | 0.75127 | 36025 ft | 440 kts | 277° |
| 2026-05-04 15:01 | 51.60010 | 0.60548 | 36011 ft | 445 kts | 284° |
| 2026-05-04 15:01 | 51.61233 | 0.55945 | 36030 ft | 450 kts | 298° |
| 2026-05-04 15:01 | 51.63100 | 0.51881 | 36015 ft | 455 kts | 312° |
| 2026-05-04 15:02 | 51.65564 | 0.48662 | 36038 ft | 459 kts | 323° |
| 2026-05-04 15:02 | 51.68172 | 0.45663 | 36008 ft | 460 kts | 322° |
| 2026-05-04 15:02 | 51.73290 | 0.39514 | 36027 ft | 459 kts | 319° |
| 2026-05-04 15:03 | 51.78190 | 0.32925 | 36041 ft | 457 kts | 317° |
| 2026-05-04 15:03 | 51.82949 | 0.26145 | 36054 ft | 456 kts | 316° |
| 2026-05-04 15:04 | 51.87653 | 0.19384 | 36040 ft | 454 kts | 316° |
| 2026-05-04 15:04 | 51.92367 | 0.12619 | 36042 ft | 451 kts | 316° |
| 2026-05-04 15:05 | 51.94700 | 0.09271 | 35934 ft | 444 kts | 316° |
| 2026-05-04 15:05 | 51.97007 | 0.05956 | 35371 ft | 443 kts | 316° |
| 2026-05-04 15:05 | 51.99309 | 0.02644 | 34906 ft | 441 kts | 316° |
| 2026-05-04 15:05 | 52.01611 | -0.00657 | 34434 ft | 440 kts | 318° |
| 2026-05-04 15:06 | 52.04116 | -0.03617 | 33929 ft | 441 kts | 328° |